Time;durP1;ratioP1;P1;durP2;ratioP2;P2;SDS_P1;SDS_P2;PMS_P1;PMS_P2;Temp;Humidity;BMP_temperature;BMP_pressure;BME280_temperature;BME280_humidity;BME280_pressure;Samples;Min_cycle;Max_cycle;Signal;HPM_P1;HPM_P2
2023/04/15 00:00:05;;;;;;;10.65;6.03;;;;;;;8.41;59.65;98678.22;4488239;31;20152;-90
2023/04/15 00:02:31;;;;;;;10.15;6.05;;;;;;;8.37;59.64;98689.63;4475334;31;20111;-91
2023/04/15 00:04:56;;;;;;;8.35;5.62;;;;;;;8.27;59.64;98682.19;4474331;31;20132;-90
2023/04/15 00:07:21;;;;;;;10.32;6.07;;;;;;;8.27;59.64;98678.72;4474812;31;20159;-91
2023/04/15 00:09:47;;;;;;;11.15;5.90;;;;;;;8.45;59.65;98680.63;4487766;31;20108;-91
2023/04/15 00:12:12;;;;;;;7.82;5.05;;;;;;;8.47;59.65;98683.16;4475285;31;20144;-92
2023/04/15 00:14:38;;;;;;;9.00;6.07;;;;;;;8.48;59.65;98682.25;4475402;31;20115;-91
2023/04/15 00:17:03;;;;;;;11.85;5.93;;;;;;;8.40;59.65;98686.91;4475639;31;20126;-92
2023/04/15 00:19:29;;;;;;;9.25;5.93;;;;;;;8.53;59.66;98677.75;4490606;31;20151;-91
2023/04/15 00:21:55;;;;;;;9.32;6.18;;;;;;;8.53;59.66;98688.97;4476083;31;20122;-92
2023/04/15 00:24:20;;;;;;;9.30;5.62;;;;;;;8.51;59.66;98693.34;4474837;31;20092;-91
2023/04/15 00:26:46;;;;;;;7.72;5.53;;;;;;;8.47;59.65;98688.34;4474766;31;20154;-90
2023/04/15 00:29:12;;;;;;;8.52;5.90;;;;;;;8.52;59.66;98691.63;4474531;31;20160;-91
2023/04/15 00:31:37;;;;;;;10.20;4.97;;;;;;;8.74;59.67;98684.63;4474709;31;20143;-91
2023/04/15 00:34:03;;;;;;;7.45;4.90;;;;;;;8.70;59.66;98679.62;4474446;31;20226;-91
2023/04/15 00:36:29;;;;;;;8.85;5.07;;;;;;;8.69;59.66;98670.16;4474781;31;20199;-90
2023/04/15 00:38:54;;;;;;;9.73;5.37;;;;;;;8.72;59.66;98667.44;4474072;31;20140;-91
2023/04/15 00:41:19;;;;;;;8.70;5.43;;;;;;;8.61;59.66;98667.91;4487533;31;20111;-91
2023/04/15 00:43:45;;;;;;;10.07;5.78;;;;;;;8.40;59.65;98674.78;4474472;31;20705;-93
2023/04/15 00:46:12;;;;;;;5.93;4.60;;;;;;;8.62;59.66;98672.19;4475148;31;20151;-93
2023/04/15 00:48:37;;;;;;;8.18;5.22;;;;;;;8.59;59.66;98667.97;4474957;31;20116;-93
2023/04/15 00:51:03;;;;;;;8.38;5.12;;;;;;;8.60;59.66;98677.44;4474916;31;20096;-92
2023/04/15 00:53:29;;;;;;;7.03;4.78;;;;;;;8.58;59.65;98675.81;4474784;31;20480;-93
2023/04/15 00:55:54;;;;;;;8.02;5.35;;;;;;;8.53;59.66;98673.41;4474409;31;20159;-91
2023/04/15 00:58:20;;;;;;;6.18;4.65;;;;;;;8.73;59.66;98671.72;4474160;31;20108;-88
2023/04/15 01:00:46;;;;;;;6.87;4.55;;;;;;;8.70;59.66;98677.88;4500477;31;20444;-89
2023/04/15 01:03:11;;;;;;;8.13;4.53;;;;;;;8.72;59.66;98672.63;4486539;31;20159;-89
2023/04/15 01:05:37;;;;;;;5.75;4.07;;;;;;;8.87;59.67;98672.84;4487137;31;20120;-89
2023/04/15 01:08:02;;;;;;;10.15;4.70;;;;;;;8.73;59.66;98676.91;4473930;31;20092;-89
2023/04/15 01:10:28;;;;;;;6.68;4.53;;;;;;;8.72;59.66;98676.06;4487160;31;20096;-90
2023/04/15 01:12:54;;;;;;;7.72;4.47;;;;;;;8.98;59.68;98674.13;4487330;31;20135;-89
2023/04/15 01:15:19;;;;;;;7.78;4.68;;;;;;;8.96;59.67;98665.56;4473610;31;21974;-89
2023/04/15 01:17:45;;;;;;;8.20;4.65;;;;;;;9.00;59.68;98672.34;4474126;31;20413;-93
2023/04/15 01:20:11;;;;;;;8.43;4.50;;;;;;;8.94;59.67;98668.22;4475466;31;20123;-94
2023/04/15 01:22:37;;;;;;;6.00;4.03;;;;;;;8.93;59.67;98661.34;4475190;31;20087;-93
2023/04/15 01:25:10;;;;;;;6.95;4.70;;;;;;;9.08;59.68;98659.84;4487631;31;20818;-91
2023/04/15 01:27:37;;;;;;;7.97;4.40;;;;;;;9.09;59.68;98666.72;4474440;31;20113;-91
2023/04/15 01:30:04;;;;;;;5.97;4.32;;;;;;;8.98;59.68;98667.19;4474490;31;20092;-91
2023/04/15 01:32:30;;;;;;;7.43;4.22;;;;;;;9.08;59.68;98670.25;4474581;31;20111;-91
2023/04/15 01:34:55;;;;;;;6.18;4.45;;;;;;;9.04;59.69;98674.72;4474604;31;20129;-90
2023/04/15 01:37:20;;;;;;;7.07;4.65;;;;;;;9.03;59.67;98664.41;4474995;31;20100;-92
2023/04/15 01:39:46;;;;;;;7.57;4.40;;;;;;;8.89;59.68;98671.00;4488597;31;20151;-92
2023/04/15 01:42:11;;;;;;;6.95;4.30;;;;;;;8.97;59.68;98670.69;4476214;31;24507;-92
2023/04/15 01:44:37;;;;;;;8.18;4.40;;;;;;;9.13;59.68;98678.66;4475431;31;20136;-93
2023/04/15 01:47:02;;;;;;;12.20;5.28;;;;;;;9.09;59.68;98675.37;4487492;31;20176;-94
2023/04/15 01:49:28;;;;;;;7.95;4.30;;;;;;;9.08;59.68;98684.06;4474451;31;20148;-91
2023/04/15 01:51:53;;;;;;;9.32;4.90;;;;;;;9.04;59.67;98679.91;4487003;31;20099;-91
2023/04/15 01:54:19;;;;;;;7.40;4.47;;;;;;;8.97;59.68;98678.47;4486911;31;20139;-91
2023/04/15 01:56:44;;;;;;;7.15;4.28;;;;;;;9.18;59.68;98677.56;4473648;31;20131;-91
2023/04/15 01:59:10;;;;;;;6.28;4.10;;;;;;;9.14;59.69;98676.00;4473636;31;20120;-92
2023/04/15 02:01:35;;;;;;;5.95;3.85;;;;;;;9.17;59.69;98677.63;4473493;31;20107;-91
2023/04/15 02:04:01;;;;;;;7.20;4.50;;;;;;;9.31;59.69;98677.03;4473712;31;20131;-91
2023/04/15 02:06:27;;;;;;;7.30;4.30;;;;;;;9.26;59.70;98682.44;4473534;31;20410;-90
2023/04/15 02:08:52;;;;;;;7.62;4.18;;;;;;;9.23;59.69;98680.81;4473571;31;20153;-91
2023/04/15 02:11:18;;;;;;;6.90;3.80;;;;;;;9.27;59.68;98680.69;4486613;31;20163;-93
2023/04/15 02:13:44;;;;;;;7.62;4.03;;;;;;;9.37;59.70;98684.53;4487497;31;20791;-92
2023/04/15 02:16:18;;;;;;;7.12;3.97;;;;;;;9.45;59.70;98683.28;4475756;31;20108;-91
2023/04/15 02:18:45;;;;;;;6.03;3.75;;;;;;;9.43;59.71;98684.25;4475477;31;20119;-91
2023/04/15 02:21:11;;;;;;;7.18;4.18;;;;;;;9.38;59.69;98675.84;4475601;31;20106;-91
2023/04/15 02:23:36;;;;;;;6.12;3.97;;;;;;;9.36;59.70;98673.31;4475570;31;20108;-91
2023/04/15 02:26:02;;;;;;;6.57;3.80;;;;;;;9.47;59.70;98675.44;4475616;31;20405;-90
2023/04/15 02:28:27;;;;;;;7.03;4.18;;;;;;;9.45;59.70;98682.44;4475434;31;20167;-90
2023/04/15 02:30:55;;;;;;;7.70;4.20;;;;;;;9.67;59.71;98667.56;4475348;31;20144;-90
2023/04/15 02:33:20;;;;;;;5.40;3.50;;;;;;;9.57;59.70;98678.47;4475998;31;20112;-90
2023/04/15 02:35:46;;;;;;;9.98;4.05;;;;;;;9.34;59.70;98682.94;4475407;31;20095;-90
2023/04/15 02:38:13;;;;;;;9.00;3.97;;;;;;;9.39;59.70;98683.56;4488154;31;20169;-90
2023/04/15 02:40:38;;;;;;;6.80;4.00;;;;;;;9.49;59.71;98679.66;4488479;31;20130;-90
2023/04/15 02:43:05;;;;;;;7.45;3.95;;;;;;;9.44;59.70;98689.37;4488439;31;20381;-90
2023/04/15 02:45:31;;;;;;;7.25;4.20;;;;;;;9.66;59.72;98691.03;4475323;31;20112;-89
2023/04/15 02:47:57;;;;;;;6.72;4.47;;;;;;;9.64;59.71;98685.06;4475266;31;20466;-89
2023/04/15 02:50:23;;;;;;;6.72;3.53;;;;;;;9.57;59.71;98681.91;4488449;31;20152;-91
2023/04/15 02:52:48;;;;;;;5.45;3.72;;;;;;;9.68;59.72;98678.81;4488734;31;20112;-90
2023/04/15 02:55:14;;;;;;;9.73;4.47;;;;;;;9.63;59.71;98684.22;4476239;31;20112;-92
2023/04/15 02:57:40;;;;;;;7.10;3.95;;;;;;;9.53;59.71;98676.00;4476709;31;20406;-92
2023/04/15 03:00:08;;;;;;;6.60;4.00;;;;;;;9.66;59.71;98670.25;4489945;31;20084;-92
2023/04/15 03:02:34;;;;;;;8.48;4.32;;;;;;;9.66;59.71;98671.09;4478266;31;20100;-93
2023/04/15 03:05:00;;;;;;;7.22;4.18;;;;;;;9.62;59.71;98666.94;4478324;31;20077;-92
2023/04/15 03:07:25;;;;;;;9.20;4.45;;;;;;;9.56;59.70;98672.44;4476316;31;20134;-92
2023/04/15 03:09:51;;;;;;;6.68;4.43;;;;;;;9.64;59.72;98675.50;4475687;31;20190;-92
2023/04/15 03:12:16;;;;;;;5.85;4.12;;;;;;;9.63;59.71;98673.81;4476029;31;20123;-92
2023/04/15 03:14:42;;;;;;;7.97;4.68;;;;;;;9.54;59.70;98677.69;4475759;31;20161;-91
2023/04/15 03:17:07;;;;;;;6.60;4.15;;;;;;;9.38;59.70;98679.28;4475806;31;20091;-93
2023/04/15 03:19:33;;;;;;;8.68;4.28;;;;;;;9.38;59.70;98675.84;4475796;31;20139;-93
2023/04/15 03:21:58;;;;;;;7.82;4.70;;;;;;;9.47;59.70;98676.28;4474619;31;20491;-90
2023/04/15 03:24:23;;;;;;;9.40;4.93;;;;;;;9.49;59.71;98671.88;4475067;31;20152;-91
2023/04/15 03:26:49;;;;;;;8.02;4.68;;;;;;;9.48;59.70;98671.94;4474664;31;20217;-91
2023/04/15 03:29:14;;;;;;;7.40;4.28;;;;;;;9.47;59.70;98673.69;4475112;31;20087;-91
2023/04/15 03:31:40;;;;;;;9.45;5.05;;;;;;;9.67;59.71;98674.53;4475125;31;20161;-92
2023/04/15 03:34:06;;;;;;;8.98;5.07;;;;;;;9.67;59.72;98679.72;4475495;31;20135;-92
2023/04/15 03:36:34;;;;;;;10.40;5.95;;;;;;;9.54;59.71;98671.66;4475067;31;20100;-91
2023/04/15 03:39:00;;;;;;;7.47;5.18;;;;;;;9.65;59.72;98677.19;4475603;31;20095;-91
2023/04/15 03:41:27;;;;;;;7.10;4.65;;;;;;;9.56;59.70;98675.03;4502340;31;20128;-93
2023/04/15 03:43:52;;;;;;;8.38;5.18;;;;;;;9.63;59.71;98670.38;4476878;31;20144;-93
2023/04/15 03:46:18;;;;;;;10.70;6.40;;;;;;;9.63;59.70;98670.38;4476199;31;20155;-93
2023/04/15 03:48:43;;;;;;;10.45;5.05;;;;;;;9.47;59.70;98665.91;4475625;31;20116;-93
2023/04/15 03:51:08;;;;;;;8.70;5.35;;;;;;;9.46;59.70;98669.41;4475800;31;20591;-92
2023/04/15 03:53:34;;;;;;;9.05;5.75;;;;;;;9.35;59.70;98668.19;4475447;31;20143;-90
2023/04/15 03:55:59;;;;;;;8.15;5.25;;;;;;;9.37;59.70;98671.56;4475354;31;20139;-92
2023/04/15 03:58:25;;;;;;;9.98;5.60;;;;;;;9.44;59.70;98675.56;4475334;31;20165;-92
2023/04/15 04:00:51;;;;;;;8.75;5.80;;;;;;;9.53;59.71;98668.22;4488435;31;20188;-95
2023/04/15 04:03:16;;;;;;;8.07;5.00;;;;;;;9.52;59.70;98661.34;4475497;31;20124;-91
2023/04/15 04:05:43;;;;;;;7.75;4.97;;;;;;;9.58;59.71;98665.41;4501376;31;20085;-93
2023/04/15 04:08:08;;;;;;;7.95;4.72;;;;;;;9.48;59.70;98665.00;4476198;31;20107;-93
2023/04/15 04:10:34;;;;;;;7.60;5.57;;;;;;;9.51;59.71;98667.44;4475515;31;20108;-91
2023/04/15 04:13:00;;;;;;;7.72;5.20;;;;;;;9.72;59.72;98668.22;4474976;31;20406;-92
2023/04/15 04:15:26;;;;;;;8.65;5.68;;;;;;;9.65;59.72;98673.75;4474989;31;20092;-90
2023/04/15 04:17:51;;;;;;;8.68;5.20;;;;;;;9.63;59.71;98671.22;4475203;31;20095;-89
2023/04/15 04:20:17;;;;;;;7.15;5.28;;;;;;;9.59;59.71;98668.84;4501495;31;20122;-90
2023/04/15 04:22:42;;;;;;;7.87;4.80;;;;;;;9.50;59.70;98672.72;4502181;31;20440;-89
2023/04/15 04:25:09;;;;;;;8.68;4.93;;;;;;;9.59;59.71;98681.84;4489500;31;20118;-90
2023/04/15 04:27:34;;;;;;;8.25;5.47;;;;;;;9.55;59.71;98675.94;4489273;31;20415;-90
2023/04/15 04:30:00;;;;;;;9.52;5.55;;;;;;;9.60;59.71;98678.31;4488085;31;20110;-90
2023/04/15 04:32:26;;;;;;;8.52;5.30;;;;;;;9.71;59.71;98678.69;4487226;31;20452;-90
2023/04/15 04:34:51;;;;;;;9.68;4.97;;;;;;;9.90;59.73;98678.66;4474396;31;20136;-90
2023/04/15 04:37:16;;;;;;;7.45;4.87;;;;;;;9.89;59.72;98675.22;4472980;31;20128;-89
2023/04/15 04:39:42;;;;;;;7.50;5.12;;;;;;;9.92;59.73;98677.69;4473967;31;20231;-90
2023/04/15 04:42:08;;;;;;;8.63;5.05;;;;;;;9.76;59.71;98682.75;4487368;31;20499;-90
2023/04/15 04:44:33;;;;;;;6.45;4.28;;;;;;;9.89;59.72;98679.59;4486816;31;20181;-89
2023/04/15 04:46:59;;;;;;;9.43;4.87;;;;;;;9.82;59.72;98679.88;4474352;31;20135;-91
2023/04/15 04:49:24;;;;;;;7.20;4.60;;;;;;;9.78;59.71;98675.75;4487426;31;20197;-90
2023/04/15 04:51:50;;;;;;;7.32;5.10;;;;;;;9.77;59.72;98676.66;4487172;31;20197;-91
2023/04/15 04:54:16;;;;;;;7.93;4.75;;;;;;;9.87;59.73;98671.88;4474113;31;20152;-90
2023/04/15 04:56:41;;;;;;;7.30;4.93;;;;;;;9.89;59.73;98677.00;4474082;31;20099;-91
2023/04/15 04:59:08;;;;;;;6.07;4.12;;;;;;;9.92;59.72;98677.69;4487186;31;20145;-91
2023/04/15 05:01:33;;;;;;;8.30;5.15;;;;;;;10.02;59.73;98670.31;4474188;31;20126;-90
2023/04/15 05:03:59;;;;;;;8.05;5.20;;;;;;;10.00;59.73;98673.00;4474154;31;20151;-90
2023/04/15 05:06:25;;;;;;;8.40;4.97;;;;;;;10.26;59.75;98671.78;4473276;31;20091;-90
2023/04/15 05:08:50;;;;;;;7.85;5.12;;;;;;;10.20;59.75;98679.03;4486727;31;20176;-90
2023/04/15 05:11:16;;;;;;;10.90;5.15;;;;;;;10.23;59.74;98674.53;4473729;31;20096;-92
2023/04/15 05:13:41;;;;;;;7.35;4.82;;;;;;;10.33;59.76;98685.34;4473905;31;20128;-90
2023/04/15 05:16:07;;;;;;;6.20;4.25;;;;;;;10.26;59.75;98684.78;4473745;31;20140;-91
2023/04/15 05:18:32;;;;;;;7.28;4.60;;;;;;;10.54;59.75;98679.09;4473941;31;20457;-92
2023/04/15 05:20:58;;;;;;;6.82;4.65;;;;;;;10.45;59.76;98671.75;4474110;31;20133;-90
2023/04/15 05:23:23;;;;;;;8.02;4.70;;;;;;;10.64;59.77;98676.88;4487293;31;20087;-90
2023/04/15 05:25:48;;;;;;;8.77;4.32;;;;;;;10.48;59.76;98671.59;4486779;31;20428;-92
2023/04/15 05:28:14;;;;;;;7.18;4.95;;;;;;;10.48;59.76;98679.41;4473706;31;20097;-92
2023/04/15 05:30:39;;;;;;;8.77;4.82;;;;;;;10.57;59.77;98681.53;4473670;31;20092;-91
2023/04/15 05:33:05;;;;;;;7.65;5.10;;;;;;;10.61;59.76;98682.22;4473645;31;20373;-91
2023/04/15 05:35:30;;;;;;;7.57;5.07;;;;;;;10.61;59.76;98685.69;4473668;31;20104;-91
2023/04/15 05:37:56;;;;;;;8.18;5.30;;;;;;;10.70;59.78;98690.44;4473894;31;20168;-91
2023/04/15 05:40:21;;;;;;;8.35;5.45;;;;;;;10.72;59.77;98696.41;4474382;31;20148;-92
2023/04/15 05:42:47;;;;;;;7.60;5.10;;;;;;;10.71;59.77;98689.53;4474942;31;20119;-92
2023/04/15 05:45:12;;;;;;;8.13;4.87;;;;;;;10.83;59.78;98695.88;4488978;31;20157;-91
2023/04/15 05:47:38;;;;;;;7.05;5.30;;;;;;;10.80;59.78;98696.03;4475372;31;20116;-90
2023/04/15 05:50:03;;;;;;;9.73;5.18;;;;;;;10.92;59.78;98690.22;4489103;31;20159;-91
2023/04/15 05:52:30;;;;;;;7.40;4.87;;;;;;;10.93;59.79;98688.47;4475879;31;20118;-92
2023/04/15 05:54:55;;;;;;;7.85;4.55;;;;;;;11.14;59.79;98695.19;4475827;31;20092;-91
2023/04/15 05:57:20;;;;;;;6.75;4.60;;;;;;;11.26;59.80;98694.53;4475134;31;20410;-91
2023/04/15 05:59:46;;;;;;;8.95;5.35;;;;;;;11.52;59.81;98687.97;4475501;31;20456;-92
2023/04/15 06:02:12;;;;;;;8.23;5.10;;;;;;;11.74;59.82;98695.50;4475805;31;20096;-91
2023/04/15 06:04:38;;;;;;;6.18;4.47;;;;;;;12.12;59.84;98693.47;4475715;31;20131;-92
2023/04/15 06:07:03;;;;;;;6.80;4.20;;;;;;;12.28;59.85;98703.88;4475556;31;20140;-91
2023/04/15 06:09:29;;;;;;;4.55;3.28;;;;;;;12.49;59.87;98700.06;4475615;31;20396;-91
2023/04/15 06:11:55;;;;;;;5.37;3.90;;;;;;;12.64;59.87;98693.16;4488647;31;20114;-91
2023/04/15 06:14:21;;;;;;;5.62;4.05;;;;;;;12.89;59.88;98695.19;4488703;31;20087;-92
2023/04/15 06:16:46;;;;;;;6.95;3.75;;;;;;;13.05;59.90;98701.19;4488589;31;20485;-90
2023/04/15 06:19:13;;;;;;;5.20;4.03;;;;;;;13.20;59.91;98700.31;4475154;31;20108;-91
2023/04/15 06:21:38;;;;;;;5.05;3.58;;;;;;;13.51;59.92;98695.88;4475667;31;20092;-92
2023/04/15 06:24:04;;;;;;;3.92;3.45;;;;;;;13.77;59.94;98697.75;4475381;31;20151;-91
2023/04/15 06:26:30;;;;;;;5.75;3.80;;;;;;;14.00;59.95;98692.84;4475303;31;20175;-91
2023/04/15 06:28:55;;;;;;;5.93;4.03;;;;;;;14.08;59.95;98694.03;4475573;31;20147;-91
2023/04/15 06:31:21;;;;;;;5.07;3.55;;;;;;;14.14;59.96;98688.41;4475566;31;20127;-90
2023/04/15 06:33:46;;;;;;;5.12;3.35;;;;;;;14.11;59.96;98695.63;4488502;31;20151;-92
2023/04/15 06:36:12;;;;;;;4.75;2.92;;;;;;;14.22;59.96;98695.78;4475341;31;20158;-91
2023/04/15 06:38:37;;;;;;;6.68;3.12;;;;;;;14.17;59.95;98695.22;4488441;31;20400;-91
2023/04/15 06:41:03;;;;;;;4.87;3.20;;;;;;;14.20;59.97;98696.84;4488437;31;20130;-91
2023/04/15 06:43:29;;;;;;;4.68;3.60;;;;;;;14.26;59.97;98705.13;4488629;31;20100;-91
2023/04/15 06:45:55;;;;;;;8.38;4.00;;;;;;;14.42;59.98;98704.97;4501516;31;20143;-91
2023/04/15 06:48:21;;;;;;;8.80;4.22;;;;;;;14.46;59.97;98703.06;4488367;31;20104;-92
2023/04/15 06:50:47;;;;;;;7.60;3.97;;;;;;;14.56;59.98;98693.66;4475395;31;20121;-92
2023/04/15 06:53:12;;;;;;;8.95;3.97;;;;;;;14.54;59.97;98703.38;4488509;31;20109;-91
2023/04/15 06:55:37;;;;;;;8.85;4.07;;;;;;;14.58;59.98;98689.16;4475366;31;20451;-91
2023/04/15 06:58:03;;;;;;;5.32;3.47;;;;;;;14.66;59.98;98697.34;4475827;31;20151;-91
2023/04/15 07:00:29;;;;;;;6.25;3.72;;;;;;;14.72;59.99;98702.19;4475227;31;20126;-91
2023/04/15 07:02:54;;;;;;;6.35;3.47;;;;;;;14.80;60.00;98701.69;4489576;31;20064;-91
2023/04/15 07:05:20;;;;;;;7.25;4.30;;;;;;;14.78;59.99;98695.72;4489751;31;20201;-92
2023/04/15 07:07:45;;;;;;;7.60;4.22;;;;;;;14.66;59.99;98699.94;4489886;31;20148;-91
2023/04/15 07:10:11;;;;;;;6.68;4.20;;;;;;;14.66;59.99;98702.56;4475651;31;20072;-91
2023/04/15 07:12:36;;;;;;;8.63;4.00;;;;;;;14.85;59.99;98710.91;4475152;31;20090;-92
2023/04/15 07:15:02;;;;;;;6.65;3.50;;;;;;;15.00;60.00;98702.03;4475285;31;20452;-91
2023/04/15 07:17:28;;;;;;;6.55;3.47;;;;;;;14.97;60.00;98702.25;4475150;31;20244;-92
2023/04/15 07:19:53;;;;;;;6.15;2.90;;;;;;;15.08;60.00;98705.94;4474973;31;20477;-92
2023/04/15 07:22:19;;;;;;;7.18;3.25;;;;;;;15.13;60.00;98712.53;4488385;31;20099;-92
2023/04/15 07:24:45;;;;;;;5.87;3.60;;;;;;;15.22;60.01;98700.59;4488141;31;20101;-92
2023/04/15 07:27:10;;;;;;;8.32;3.60;;;;;;;15.18;60.02;98710.47;4488317;31;20508;-91
2023/04/15 07:29:36;;;;;;;6.65;3.05;;;;;;;15.21;60.01;98714.66;4488023;31;20143;-92
2023/04/15 07:32:01;;;;;;;4.78;3.33;;;;;;;15.49;60.03;98706.59;4501018;31;20110;-91
2023/04/15 07:34:27;;;;;;;6.93;3.42;;;;;;;15.50;60.03;98708.25;4474781;31;20143;-91
2023/04/15 07:36:53;;;;;;;7.40;2.90;;;;;;;15.58;60.04;98710.34;4488002;31;20437;-91
2023/04/15 07:39:18;;;;;;;6.45;3.10;;;;;;;15.70;60.04;98711.34;4474694;31;20444;-92
2023/04/15 07:41:44;;;;;;;4.68;2.72;;;;;;;15.70;60.05;98709.56;4474851;31;20088;-92
2023/04/15 07:44:10;;;;;;;6.70;3.40;;;;;;;15.58;60.03;98712.97;4474640;31;20157;-91
2023/04/15 07:46:37;;;;;;;8.23;3.95;;;;;;;15.26;60.02;98709.94;4487927;31;20108;-91
2023/04/15 07:49:02;;;;;;;7.10;4.15;;;;;;;14.97;60.00;98717.97;4487989;31;20092;-92
2023/04/15 07:51:28;;;;;;;8.05;4.40;;;;;;;14.92;60.00;98725.31;4487912;31;20432;-91
2023/04/15 07:53:53;;;;;;;7.85;4.15;;;;;;;14.83;59.99;98725.91;4474739;31;20760;-92
2023/04/15 07:56:19;;;;;;;9.13;4.60;;;;;;;14.97;60.01;98723.22;4487205;31;24392;-92
2023/04/15 07:58:45;;;;;;;7.90;4.47;;;;;;;15.01;60.00;98723.84;4474621;31;20093;-92
2023/04/15 08:01:10;;;;;;;8.93;4.97;;;;;;;15.21;60.01;98722.53;4474545;31;20084;-92
2023/04/15 08:03:36;;;;;;;8.43;4.07;;;;;;;15.36;60.03;98724.09;4474718;31;20392;-92
2023/04/15 08:06:01;;;;;;;5.57;3.58;;;;;;;15.39;60.02;98721.28;4474706;31;20421;-91
2023/04/15 08:08:27;;;;;;;6.22;3.40;;;;;;;15.51;60.03;98725.69;4474626;31;20092;-92
2023/04/15 08:10:52;;;;;;;11.23;2.80;;;;;;;15.67;60.04;98729.91;4474658;31;20080;-91
2023/04/15 08:13:18;;;;;;;4.10;2.35;;;;;;;15.56;60.04;98730.59;4486513;31;20127;-92
2023/04/15 08:15:43;;;;;;;2.97;1.90;;;;;;;15.53;60.03;98731.66;4474732;31;20460;-91
2023/04/15 08:18:09;;;;;;;3.85;2.28;;;;;;;15.30;60.02;98735.00;4488000;31;20088;-92
2023/04/15 08:20:35;;;;;;;2.85;1.90;;;;;;;15.36;60.02;98737.19;4488253;31;20127;-91
2023/04/15 08:23:02;;;;;;;2.40;1.80;;;;;;;15.52;60.03;98729.16;4501611;31;20122;-92
2023/04/15 08:25:28;;;;;;;3.15;2.05;;;;;;;15.52;60.03;98734.38;4476393;31;20123;-92
2023/04/15 08:27:55;;;;;;;4.53;2.00;;;;;;;15.74;60.04;98745.13;4502870;31;20080;-92
2023/04/15 08:30:20;;;;;;;2.65;1.70;;;;;;;15.88;60.06;98736.31;4475871;31;20832;-91
2023/04/15 08:32:46;;;;;;;3.67;1.17;;;;;;;16.14;60.07;98744.97;4487867;31;20147;-91
2023/04/15 08:35:11;;;;;;;1.58;1.10;;;;;;;16.35;60.08;98740.81;4474359;31;20436;-91
2023/04/15 08:37:37;;;;;;;1.50;0.80;;;;;;;16.45;60.08;98739.19;4474296;31;20387;-92
2023/04/15 08:40:03;;;;;;;1.90;1.00;;;;;;;16.52;60.08;98736.97;4474291;31;20450;-91
2023/04/15 08:42:36;;;;;;;1.23;0.82;;;;;;;16.43;60.08;98737.63;4487601;31;20089;-92
2023/04/15 08:45:03;;;;;;;3.37;0.98;;;;;;;16.21;60.07;98740.97;4487641;31;20855;-92
2023/04/15 08:47:29;;;;;;;1.85;1.15;;;;;;;16.25;60.07;98751.13;4487289;31;20470;-93
2023/04/15 08:49:54;;;;;;;1.50;1.23;;;;;;;16.05;60.06;98748.22;4474366;31;20080;-92
2023/04/15 08:52:20;;;;;;;1.80;1.10;;;;;;;16.22;60.07;98742.63;4487482;31;20126;-92
2023/04/15 08:54:46;;;;;;;2.87;1.70;;;;;;;16.13;60.07;98743.28;4487381;31;20132;-92
2023/04/15 08:57:11;;;;;;;1.60;1.08;;;;;;;16.23;60.06;98749.56;4487493;31;20473;-91
2023/04/15 08:59:36;;;;;;;27.58;14.85;;;;;;;16.36;60.07;98749.53;4474237;31;20138;-91
2023/04/15 09:02:02;;;;;;;5.18;1.70;;;;;;;16.58;60.09;98741.78;4474024;31;20122;-91
2023/04/15 09:04:28;;;;;;;1.95;1.40;;;;;;;16.66;60.10;98736.84;4474134;31;20402;-92
2023/04/15 09:06:53;;;;;;;2.78;1.60;;;;;;;16.73;60.10;98748.56;4474047;31;20084;-91
2023/04/15 09:09:19;;;;;;;2.85;1.58;;;;;;;16.90;60.11;98749.97;4487100;31;20087;-91
2023/04/15 09:11:44;;;;;;;2.40;1.55;;;;;;;16.79;60.10;98750.75;4473919;31;20164;-92
2023/04/15 09:14:10;;;;;;;3.17;1.90;;;;;;;16.74;60.10;98749.41;4474056;31;20220;-92
2023/04/15 09:16:58;;;;;;;3.85;2.40;;;;;;;16.76;60.10;98743.09;4473911;31;20092;-92
2023/04/15 09:19:23;;;;;;;4.18;1.95;;;;;;;16.63;60.10;98755.44;4486795;31;20088;-91
2023/04/15 09:21:51;;;;;;;2.97;1.92;;;;;;;16.62;60.10;98750.28;4473930;31;20108;-92
2023/04/15 09:24:17;;;;;;;3.55;1.83;;;;;;;16.50;60.09;98750.22;4473499;31;20116;-92
2023/04/15 09:26:42;;;;;;;3.67;2.00;;;;;;;16.64;60.10;98753.63;4473808;31;20131;-92
2023/04/15 09:29:09;;;;;;;2.35;1.65;;;;;;;16.73;60.10;98751.19;4473798;31;20151;-91
2023/04/15 09:31:35;;;;;;;1.30;0.80;;;;;;;17.01;60.12;98747.38;4473868;31;20116;-92
2023/04/15 09:34:01;;;;;;;0.95;0.70;;;;;;;17.05;60.11;98748.84;4474171;31;20131;-91
2023/04/15 09:36:29;;;;;;;2.00;0.80;;;;;;;17.08;60.12;98756.50;4487155;31;20139;-92
2023/04/15 09:38:56;;;;;;;1.30;0.68;;;;;;;17.03;60.12;98749.88;4474708;31;20079;-92
2023/04/15 09:41:22;;;;;;;1.20;0.80;;;;;;;16.90;60.11;98752.59;4474208;31;20130;-92
2023/04/15 09:43:47;;;;;;;3.50;0.80;;;;;;;16.91;60.11;98750.81;4474389;31;20148;-92
2023/04/15 09:46:13;;;;;;;1.30;0.50;;;;;;;16.92;60.11;98760.38;4474473;31;20338;-92
2023/04/15 09:48:38;;;;;;;1.02;0.57;;;;;;;16.72;60.10;98769.72;4475006;31;20379;-91
2023/04/15 09:51:04;;;;;;;1.02;0.68;;;;;;;16.49;60.09;98763.44;4474489;31;20104;-91
2023/04/15 09:53:31;;;;;;;1.55;1.10;;;;;;;16.14;60.07;98776.47;4473864;31;20107;-91
2023/04/15 09:55:58;;;;;;;3.17;1.40;;;;;;;16.03;60.06;98781.63;4486625;31;20088;-91
2023/04/15 09:58:25;;;;;;;3.37;1.60;;;;;;;16.05;60.06;98783.19;4473702;31;20488;-91
2023/04/15 10:00:51;;;;;;;1.75;0.82;;;;;;;16.18;60.07;98783.19;4473448;31;20103;-92
2023/04/15 10:03:28;;;;;;;0.80;0.70;;;;;;;16.21;60.07;98793.47;4486845;31;20160;-92
2023/04/15 10:05:55;;;;;;;1.27;0.73;;;;;;;16.14;60.07;98790.44;4474435;31;20111;-92
2023/04/15 10:08:22;;;;;;;0.68;0.50;;;;;;;16.23;60.08;98787.16;4486692;31;20087;-92
2023/04/15 10:10:48;;;;;;;2.17;0.65;;;;;;;16.37;60.08;98783.56;4473560;31;20451;-91
2023/04/15 10:13:15;;;;;;;0.95;0.60;;;;;;;16.42;60.09;98789.34;4486339;31;20118;-91
2023/04/15 10:15:43;;;;;;;1.35;0.80;;;;;;;16.54;60.10;98783.19;4486558;31;20116;-92
2023/04/15 10:18:08;;;;;;;0.82;0.60;;;;;;;16.42;60.08;98788.50;4486525;31;20092;-91
2023/04/15 10:20:34;;;;;;;0.52;0.50;;;;;;;16.53;60.09;98783.28;4472917;31;20101;-92
2023/04/15 10:22:59;;;;;;;0.85;0.55;;;;;;;16.61;60.09;98780.97;4473234;31;20126;-92
2023/04/15 10:25:25;;;;;;;3.15;0.80;;;;;;;16.80;60.10;98780.53;4486217;31;20100;-92
2023/04/15 10:27:56;;;;;;;0.88;0.88;;;;;;;16.78;60.09;98787.66;4473082;31;20091;-91
2023/04/15 10:30:21;;;;;;;1.77;0.70;;;;;;;16.58;60.09;98792.53;4486376;31;20121;-92
2023/04/15 10:32:47;;;;;;;1.33;0.90;;;;;;;16.42;60.09;98802.47;4473050;31;20100;-92
2023/04/15 10:35:12;;;;;;;1.08;0.90;;;;;;;16.36;60.08;98802.91;4486038;31;20109;-91
2023/04/15 10:37:38;;;;;;;1.02;0.60;;;;;;;16.41;60.09;98807.81;4488495;31;20087;-92
2023/04/15 10:40:22;;;;;;;1.20;0.70;;;;;;;16.27;60.08;98799.13;4475287;31;20108;-92
2023/04/15 10:42:48;;;;;;;0.90;0.52;;;;;;;16.49;60.09;98810.75;4488651;31;20126;-91
2023/04/15 10:45:17;;;;;;;1.62;0.60;;;;;;;16.69;60.10;98797.06;4475521;31;20119;-91
2023/04/15 10:47:42;;;;;;;1.10;0.68;;;;;;;16.54;60.09;98795.47;4488551;31;20088;-92
2023/04/15 10:50:08;;;;;;;1.25;0.80;;;;;;;16.63;60.10;98797.47;4475103;31;20517;-93
2023/04/15 10:52:33;;;;;;;1.58;0.80;;;;;;;16.30;60.07;98805.09;4475280;31;20198;-92
2023/04/15 10:55:17;;;;;;;1.35;0.85;;;;;;;16.24;60.08;98811.63;4475544;31;20406;-92
2023/04/15 10:57:43;;;;;;;0.43;0.30;;;;;;;16.32;60.08;98811.09;4501845;31;20084;-92
2023/04/15 11:00:10;;;;;;;0.73;0.60;;;;;;;16.14;60.07;98811.44;4475638;31;20165;-92
2023/04/15 11:02:56;;;;;;;0.82;0.60;;;;;;;16.05;60.06;98812.06;4489374;31;20112;-91
2023/04/15 11:05:42;;;;;;;0.70;0.57;;;;;;;16.00;60.07;98822.03;4477797;31;20072;-93
2023/04/15 11:08:08;;;;;;;0.30;0.30;;;;;;;15.99;60.06;98812.50;4504322;31;20060;-91
2023/04/15 11:10:33;;;;;;;3.90;0.80;;;;;;;16.04;60.06;98809.53;4489734;31;20097;-92
2023/04/15 11:13:03;;;;;;;1.20;0.52;;;;;;;16.05;60.06;98804.19;4501576;31;20096;-92
2023/04/15 11:15:32;;;;;;;0.68;0.43;;;;;;;16.09;60.07;98818.81;4488320;31;20445;-91
2023/04/15 11:18:18;;;;;;;1.15;0.50;;;;;;;16.03;60.06;98813.97;4488275;31;20097;-92
2023/04/15 11:20:51;;;;;;;0.68;0.57;;;;;;;16.13;60.07;98808.94;4475210;31;20479;-92
2023/04/15 11:23:34;;;;;;;1.30;0.65;;;;;;;16.35;60.08;98813.53;4475779;31;20120;-92
2023/04/15 11:26:01;;;;;;;1.12;0.80;;;;;;;16.56;60.10;98806.72;4475132;31;20111;-91
2023/04/15 11:28:27;;;;;;;0.85;0.45;;;;;;;16.51;60.10;98806.22;4475348;31;20699;-92
2023/04/15 11:30:54;;;;;;;1.50;0.40;;;;;;;16.42;60.08;98804.25;4475152;31;20108;-92